Time;durP1;ratioP1;P1;durP2;ratioP2;P2;SDS_P1;SDS_P2;PMS_P1;PMS_P2;Temp;Humidity;BMP_temperature;BMP_pressure;BME280_temperature;BME280_humidity;BME280_pressure;Samples;Min_cycle;Max_cycle;Signal;HPM_P1;HPM_P2
2021/07/18 00:01:51;;;;;;;7.95;5.75;;;;;;;20.11;70.00;96124.34;5046081;28;20049;-66
2021/07/18 00:04:18;;;;;;;7.10;5.35;;;;;;;20.11;69.97;96130.75;5044927;28;20503;-66
2021/07/18 00:06:44;;;;;;;6.38;5.07;;;;;;;19.80;69.70;96072.84;5046069;28;20053;-64
2021/07/18 00:09:11;;;;;;;9.40;5.65;;;;;;;19.61;69.89;96087.94;5044682;28;20061;-64
2021/07/18 00:11:38;;;;;;;10.25;5.93;;;;;;;20.12;69.71;96125.94;5046991;28;20086;-65
2021/07/18 00:14:05;;;;;;;10.45;4.75;;;;;;;20.09;69.63;96127.59;5065214;28;20139;-66
2021/07/18 00:16:32;;;;;;;9.27;5.32;;;;;;;20.15;69.59;96130.66;5065088;28;20048;-64
2021/07/18 00:18:59;;;;;;;9.27;5.72;;;;;;;19.99;69.00;96095.03;5066082;28;20179;-64
2021/07/18 00:21:26;;;;;;;10.23;5.15;;;;;;;20.12;69.31;96123.88;5064844;28;20052;-63
2021/07/18 00:23:54;;;;;;;7.57;5.38;;;;;;;20.12;69.01;96125.94;5064623;28;20455;-64
2021/07/18 00:26:22;;;;;;;6.38;5.20;;;;;;;20.18;68.75;96116.50;5064399;28;20076;-64
2021/07/18 00:28:49;;;;;;;7.70;5.47;;;;;;;19.98;68.80;96106.75;5065205;28;20166;-64
2021/07/18 00:31:17;;;;;;;7.28;5.22;;;;;;;20.04;69.58;96130.22;5066583;28;20143;-66
2021/07/18 00:33:44;;;;;;;7.13;5.60;;;;;;;19.94;69.72;96128.56;5065958;28;20096;-65
2021/07/18 00:36:10;;;;;;;11.70;5.97;;;;;;;19.96;70.05;96123.28;5064401;28;20058;-63
2021/07/18 00:38:37;;;;;;;8.95;5.57;;;;;;;19.77;69.86;96099.03;5064401;28;20044;-64
2021/07/18 00:41:04;;;;;;;6.20;5.53;;;;;;;19.95;69.65;96124.53;5064289;28;20118;-65
2021/07/18 00:43:31;;;;;;;6.82;5.32;;;;;;;19.51;70.18;96090.66;5064047;28;20128;-66
2021/07/18 00:45:59;;;;;;;7.40;5.53;;;;;;;19.25;70.19;96057.41;5066108;28;20559;-65
2021/07/18 00:48:29;;;;;;;9.23;5.75;;;;;;;19.72;70.70;96130.50;5065402;28;20044;-64
2021/07/18 00:50:58;;;;;;;7.03;5.40;;;;;;;19.71;70.69;96134.56;5064008;28;20060;-64
2021/07/18 00:53:25;;;;;;;9.02;5.97;;;;;;;19.24;70.71;96062.22;5065614;28;20052;-65
2021/07/18 00:55:52;;;;;;;6.45;5.80;;;;;;;19.53;70.89;96116.28;5063783;28;20458;-65
2021/07/18 00:58:19;;;;;;;6.50;5.18;;;;;;;19.70;70.80;96138.59;5065135;28;20120;-64
2021/07/18 01:00:46;;;;;;;8.13;6.03;;;;;;;19.31;70.68;96070.47;5065082;28;20052;-64
2021/07/18 01:03:14;;;;;;;8.38;5.90;;;;;;;18.99;71.04;96033.38;5063893;28;20084;-65
2021/07/18 01:05:41;;;;;;;7.18;6.13;;;;;;;19.63;71.04;96133.22;5065597;28;20059;-64
2021/07/18 01:08:07;;;;;;;7.68;5.78;;;;;;;19.40;71.84;96137.97;5065481;28;20059;-65
2021/07/18 01:10:34;;;;;;;9.48;6.00;;;;;;;19.38;72.00;96134.81;5063839;28;20056;-65
2021/07/18 01:13:01;;;;;;;7.72;6.20;;;;;;;19.25;71.95;96108.72;5051614;28;20069;-64
2021/07/18 01:15:38;;;;;;;6.15;5.55;;;;;;;19.43;71.58;96131.44;5044016;28;20056;-64
2021/07/18 01:18:10;;;;;;;6.88;5.88;;;;;;;19.40;71.57;96143.59;5043468;28;20126;-65
2021/07/18 01:20:38;;;;;;;9.02;5.93;;;;;;;18.78;71.97;96050.91;5045015;28;20063;-64
2021/07/18 01:23:04;;;;;;;9.02;6.38;;;;;;;19.25;72.74;96131.19;5044788;28;20061;-65
2021/07/18 01:25:35;;;;;;;6.78;5.60;;;;;;;19.20;73.03;96145.81;5043812;28;20089;-64
2021/07/18 01:28:10;;;;;;;8.88;5.85;;;;;;;18.94;73.05;96090.88;5044908;28;20052;-65
2021/07/18 01:30:38;;;;;;;6.18;5.10;;;;;;;18.55;73.23;96037.97;5045176;28;20160;-65
2021/07/18 01:33:05;;;;;;;6.82;6.13;;;;;;;18.57;73.93;96057.94;5044445;28;20045;-66
2021/07/18 01:35:32;;;;;;;8.63;6.00;;;;;;;19.01;73.93;96131.97;5043140;28;20064;-65
2021/07/18 01:37:59;;;;;;;10.48;6.15;;;;;;;18.96;73.96;96135.31;5044528;28;20136;-67
2021/07/18 01:40:26;;;;;;;10.18;6.10;;;;;;;18.95;73.63;96120.50;5044545;28;20132;-66
2021/07/18 01:42:54;;;;;;;9.30;5.72;;;;;;;19.09;73.46;96136.13;5044728;28;20057;-65
2021/07/18 01:45:22;;;;;;;9.38;6.15;;;;;;;19.07;73.94;96130.16;5043498;28;20572;-65
2021/07/18 01:47:49;;;;;;;7.45;6.25;;;;;;;19.15;73.49;96121.09;5043634;28;20053;-65
2021/07/18 01:50:16;;;;;;;8.07;6.32;;;;;;;18.63;73.47;96075.00;5044238;28;20057;-67
2021/07/18 01:52:44;;;;;;;9.23;6.88;;;;;;;19.17;73.50;96124.22;5042973;28;20053;-66
2021/07/18 01:55:12;;;;;;;7.70;6.22;;;;;;;18.91;73.19;96072.13;5042556;28;20052;-66
2021/07/18 01:57:40;;;;;;;7.30;6.18;;;;;;;19.37;72.48;96136.06;5044047;28;20055;-65
2021/07/18 02:00:09;;;;;;;8.00;5.75;;;;;;;18.88;72.56;96059.00;5044165;28;20066;-64
2021/07/18 02:02:39;;;;;;;7.85;6.07;;;;;;;19.47;72.37;96137.72;5043199;28;20512;-65
2021/07/18 02:05:07;;;;;;;12.15;6.63;;;;;;;19.14;72.13;96085.81;5043252;28;20059;-65
2021/07/18 02:07:34;;;;;;;8.52;6.00;;;;;;;19.50;72.20;96131.22;5043720;28;20061;-66
2021/07/18 02:10:00;;;;;;;6.95;5.85;;;;;;;19.45;72.11;96123.38;5044117;28;20063;-65
2021/07/18 02:12:27;;;;;;;9.45;5.40;;;;;;;19.23;72.46;96102.78;5048045;28;20477;-65
2021/07/18 02:14:54;;;;;;;7.25;6.00;;;;;;;18.86;71.95;96041.00;5063729;28;20056;-65
2021/07/18 02:17:21;;;;;;;7.15;6.43;;;;;;;19.45;71.59;96123.38;5063814;28;20555;-65
2021/07/18 02:19:47;;;;;;;8.50;6.65;;;;;;;18.18;72.23;95956.56;5062357;28;20056;-65
2021/07/18 02:22:18;;;;;;;9.25;6.38;;;;;;;19.30;72.60;96133.47;5063053;28;20053;-65
2021/07/18 02:24:45;;;;;;;9.25;6.25;;;;;;;19.28;73.19;96127.50;5062259;28;20064;-67
2021/07/18 02:27:11;;;;;;;8.75;6.00;;;;;;;19.20;73.71;96134.56;5062177;28;20131;-66
2021/07/18 02:29:38;;;;;;;9.48;6.55;;;;;;;18.68;73.82;96064.03;5062002;28;20060;-65
2021/07/18 02:32:05;;;;;;;9.40;5.43;;;;;;;19.22;73.56;96126.47;5063661;28;20435;-67
2021/07/18 02:34:33;;;;;;;7.32;6.00;;;;;;;18.75;73.92;96063.78;5062216;28;20052;-66
2021/07/18 02:36:59;;;;;;;7.13;6.20;;;;;;;19.12;74.44;96138.84;5061636;28;20555;-67
2021/07/18 02:39:26;;;;;;;8.77;6.53;;;;;;;19.01;75.05;96137.59;5062267;28;20499;-66
2021/07/18 02:41:53;;;;;;;10.23;6.20;;;;;;;19.04;74.99;96137.47;5064150;28;20054;-66
2021/07/18 02:44:20;;;;;;;9.45;6.22;;;;;;;18.95;75.29;96139.38;5045254;28;20060;-66
2021/07/18 02:46:46;;;;;;;10.15;5.88;;;;;;;18.98;75.43;96139.28;5063257;28;20083;-64
2021/07/18 02:49:13;;;;;;;12.02;6.20;;;;;;;18.94;75.65;96143.41;5061959;28;20473;-64
2021/07/18 02:51:40;;;;;;;9.20;6.35;;;;;;;18.87;75.90;96144.41;5061643;28;20540;-65
2021/07/18 02:54:07;;;;;;;9.82;7.10;;;;;;;16.79;76.29;96024.28;5062010;28;20048;-65
2021/07/18 02:56:33;;;;;;;10.73;7.00;;;;;;;18.55;76.06;96088.44;5063602;28;20052;-63
2021/07/18 02:59:00;;;;;;;10.68;7.20;;;;;;;18.85;76.21;96152.50;5063740;28;20063;-65
2021/07/18 03:01:27;;;;;;;13.10;7.30;;;;;;;18.58;76.25;96115.63;5062105;28;20135;-64
2021/07/18 03:03:54;;;;;;;9.48;6.60;;;;;;;18.78;76.96;96155.50;5063230;28;20503;-66
2021/07/18 03:06:21;;;;;;;9.27;6.72;;;;;;;18.79;77.42;96157.09;5063602;28;20056;-65
2021/07/18 03:08:47;;;;;;;12.88;7.80;;;;;;;18.36;77.46;96097.78;5061860;28;20063;-64
2021/07/18 03:11:14;;;;;;;8.55;7.60;;;;;;;18.42;77.60;96101.66;5061568;28;20848;-64
2021/07/18 03:13:41;;;;;;;10.88;7.75;;;;;;;18.67;76.93;96143.03;5045264;28;20348;-64
2021/07/18 03:16:07;;;;;;;10.73;7.95;;;;;;;18.46;76.58;96124.78;5041751;28;20061;-64
2021/07/18 03:18:34;;;;;;;11.60;8.30;;;;;;;17.66;76.58;95982.06;5043533;28;20090;-66
2021/07/18 03:21:01;;;;;;;12.60;8.07;;;;;;;18.77;76.54;96159.53;5041227;28;20146;-65
2021/07/18 03:23:28;;;;;;;15.63;8.57;;;;;;;18.67;76.24;96134.59;5042643;28;20052;-65
2021/07/18 03:25:54;;;;;;;11.20;8.35;;;;;;;18.86;76.42;96170.91;5045742;28;20053;-66
2021/07/18 03:28:23;;;;;;;12.20;7.85;;;;;;;18.65;76.06;96111.81;5045272;28;20140;-64
2021/07/18 03:30:50;;;;;;;18.80;12.88;;;;;;;18.89;76.20;96170.00;5047405;28;20107;-64
2021/07/18 03:33:17;;;;;;;10.63;8.30;;;;;;;19.07;76.16;96175.88;5046910;28;20056;-64
2021/07/18 03:35:44;;;;;;;16.20;7.82;;;;;;;19.20;75.87;96179.50;5045388;28;20049;-63
2021/07/18 03:38:10;;;;;;;14.93;8.70;;;;;;;19.03;74.84;96161.16;5045715;28;20095;-65
2021/07/18 03:40:37;;;;;;;11.95;7.18;;;;;;;19.25;75.78;96175.34;5047209;28;20049;-64
2021/07/18 03:43:04;;;;;;;10.95;7.72;;;;;;;19.29;75.60;96170.44;5046743;28;20056;-65
2021/07/18 03:45:31;;;;;;;11.18;7.68;;;;;;;19.36;74.22;96168.19;5046644;28;20049;-65
2021/07/18 03:47:58;;;;;;;15.75;8.23;;;;;;;19.38;74.76;96168.53;5046806;28;20052;-63
2021/07/18 03:50:24;;;;;;;11.95;7.60;;;;;;;19.19;75.81;96177.16;5044420;28;20625;-65
2021/07/18 03:52:51;;;;;;;14.82;8.55;;;;;;;15.38;78.46;95706.28;5046679;28;20049;-65
2021/07/18 03:55:18;;;;;;;20.42;9.23;;;;;;;18.45;78.54;96151.25;5047119;28;20059;-65
2021/07/18 03:57:45;;;;;;;13.82;8.18;;;;;;;18.97;77.01;96176.19;5045287;28;20478;-64
2021/07/18 04:00:14;;;;;;;11.23;8.18;;;;;;;18.96;75.90;96136.13;5045022;28;20064;-65
2021/07/18 04:02:41;;;;;;;13.98;8.52;;;;;;;19.32;75.32;96170.31;5046742;28;20059;-65
2021/07/18 04:05:08;;;;;;;15.43;8.30;;;;;;;19.47;75.52;96171.44;5046373;28;20068;-65
2021/07/18 04:07:35;;;;;;;14.30;8.35;;;;;;;19.75;74.00;96174.56;5046525;28;20057;-65
2021/07/18 04:10:03;;;;;;;10.00;7.70;;;;;;;19.80;73.39;96160.75;5045211;28;20049;-64
2021/07/18 04:12:30;;;;;;;14.13;8.05;;;;;;;19.12;73.73;96068.66;5051413;28;20060;-67
2021/07/18 04:14:57;;;;;;;11.48;7.35;;;;;;;19.32;73.14;96074.03;5065218;28;20052;-64
2021/07/18 04:17:24;;;;;;;13.15;9.05;;;;;;;20.13;72.60;96178.09;5064745;28;20060;-65
2021/07/18 04:19:51;;;;;;;12.65;8.50;;;;;;;20.19;72.05;96176.31;5065695;28;20529;-65
2021/07/18 04:22:18;;;;;;;15.13;8.65;;;;;;;20.42;71.24;96178.75;5066249;28;20052;-64
2021/07/18 04:24:44;;;;;;;14.35;8.30;;;;;;;19.72;70.95;96063.06;5064651;28;20056;-63
2021/07/18 04:27:11;;;;;;;17.00;8.57;;;;;;;20.62;70.95;96177.19;5066004;28;20063;-65
2021/07/18 04:29:38;;;;;;;14.70;8.35;;;;;;;20.36;70.02;96096.19;5064535;28;20059;-68
2021/07/18 04:32:05;;;;;;;13.32;8.50;;;;;;;20.73;69.26;96137.38;5064587;28;20058;-66
2021/07/18 04:34:33;;;;;;;14.07;7.82;;;;;;;21.19;68.62;96186.38;5065186;28;20053;-65
2021/07/18 04:36:59;;;;;;;11.65;7.57;;;;;;;20.82;69.57;96118.53;5064092;28;20063;-63
2021/07/18 04:39:27;;;;;;;13.13;7.13;;;;;;;20.82;68.86;96078.31;5066015;28;20052;-64
2021/07/18 04:41:54;;;;;;;10.05;6.80;;;;;;;21.60;68.63;96166.22;5064646;28;20056;-64
2021/07/18 04:44:20;;;;;;;17.08;7.05;;;;;;;21.79;68.27;96163.03;5064220;28;20255;-64
2021/07/18 04:46:47;;;;;;;10.88;6.97;;;;;;;21.95;68.02;96167.63;5064375;28;20059;-65
2021/07/18 04:49:14;;;;;;;12.85;6.63;;;;;;;22.17;67.47;96165.50;5065876;28;20551;-64
2021/07/18 04:51:41;;;;;;;11.18;6.97;;;;;;;22.40;66.41;96162.06;5063576;28;20057;-64
2021/07/18 04:54:11;;;;;;;8.65;6.78;;;;;;;22.64;66.00;96154.56;5065529;28;20048;-64
2021/07/18 04:56:38;;;;;;;13.00;7.25;;;;;;;22.80;65.82;96167.59;5064980;28;20143;-65
2021/07/18 04:59:06;;;;;;;13.07;6.75;;;;;;;22.99;65.18;96157.84;5065164;28;20044;-65
2021/07/18 05:01:32;;;;;;;13.27;9.40;;;;;;;23.24;64.38;96152.59;5065237;28;20072;-66
2021/07/18 05:03:59;;;;;;;9.60;8.02;;;;;;;23.49;62.82;96145.81;5063534;28;20547;-67
2021/07/18 05:06:26;;;;;;;14.75;7.28;;;;;;;23.53;62.82;96129.47;5065034;28;20057;-66
2021/07/18 05:08:53;;;;;;;16.10;6.97;;;;;;;23.73;62.95;96149.47;5065160;28;20441;-66
2021/07/18 05:11:20;;;;;;;11.77;7.22;;;;;;;23.81;62.28;96139.38;5063579;28;20534;-67
2021/07/18 05:13:50;;;;;;;9.25;6.97;;;;;;;23.97;61.79;96141.84;5048331;28;20059;-66
2021/07/18 05:16:17;;;;;;;14.13;6.85;;;;;;;23.92;61.38;96110.56;5045090;28;20259;-67
2021/07/18 05:18:45;;;;;;;9.82;6.70;;;;;;;24.15;60.77;96112.66;5043785;28;20061;-67
2021/07/18 05:21:12;;;;;;;14.00;6.65;;;;;;;24.24;60.97;96090.72;5044989;28;20083;-66
2021/07/18 05:23:39;;;;;;;11.35;6.85;;;;;;;24.58;58.87;96146.00;5043844;28;20084;-67
2021/07/18 05:26:05;;;;;;;11.60;7.57;;;;;;;24.37;58.34;96073.47;5044638;28;20052;-67
2021/07/18 05:28:32;;;;;;;12.65;7.35;;;;;;;24.08;58.26;96011.91;5045035;28;20498;-66
2021/07/18 05:30:59;;;;;;;11.68;7.88;;;;;;;24.89;57.20;96116.00;5044977;28;20060;-66
2021/07/18 05:33:25;;;;;;;18.35;8.00;;;;;;;25.04;56.82;96087.66;5044972;28;20075;-66
2021/07/18 05:35:52;;;;;;;12.23;6.90;;;;;;;25.41;57.23;96161.78;5044891;28;20045;-66
2021/07/18 05:38:19;;;;;;;10.95;7.80;;;;;;;25.72;56.38;96159.22;5042848;28;20045;-65
2021/07/18 05:40:57;;;;;;;8.60;6.65;;;;;;;25.76;55.78;96137.88;5044599;28;20103;-65
2021/07/18 05:43:24;;;;;;;10.20;7.30;;;;;;;25.95;55.25;96161.91;5043635;28;20056;-65
2021/07/18 05:45:51;;;;;;;14.68;7.22;;;;;;;26.07;55.02;96160.03;5042623;28;20528;-66
2021/07/18 05:48:23;;;;;;;11.07;6.47;;;;;;;26.33;53.50;96158.09;5042946;28;20147;-66
2021/07/18 05:50:53;;;;;;;10.85;6.57;;;;;;;26.31;53.12;96115.22;5042731;28;20136;-66
2021/07/18 05:53:20;;;;;;;10.73;6.80;;;;;;;26.88;52.75;96164.53;5044174;28;20057;-66
2021/07/18 05:55:47;;;;;;;17.70;10.65;;;;;;;27.04;52.55;96149.72;5042869;28;20527;-66
2021/07/18 05:58:14;;;;;;;13.25;7.63;;;;;;;26.93;51.75;96100.47;5043049;28;20128;-66
2021/07/18 06:00:40;;;;;;;9.68;6.60;;;;;;;27.56;50.19;96156.19;5044298;28;20096;-66
2021/07/18 06:03:08;;;;;;;8.93;6.65;;;;;;;27.64;49.74;96155.25;5044214;28;20150;-66
2021/07/18 06:05:35;;;;;;;9.75;6.50;;;;;;;27.78;48.17;96142.94;5042675;28;20136;-66
2021/07/18 06:08:03;;;;;;;13.50;6.63;;;;;;;27.77;45.83;96132.06;5042107;28;20440;-66
2021/07/18 06:10:30;;;;;;;11.57;6.35;;;;;;;28.03;43.61;96152.72;5043832;28;20064;-65
2021/07/18 06:12:57;;;;;;;11.50;5.55;;;;;;;28.17;42.79;96161.09;5053117;28;20044;-65
2021/07/18 06:15:25;;;;;;;21.63;6.80;;;;;;;28.33;43.11;96144.63;5063674;28;20052;-64
2021/07/18 06:17:51;;;;;;;10.38;5.90;;;;;;;27.90;42.62;96081.22;5063135;28;20052;-66
2021/07/18 06:20:19;;;;;;;8.73;6.28;;;;;;;28.38;43.03;96152.41;5061532;28;20059;-67
2021/07/18 06:22:47;;;;;;;16.83;8.05;;;;;;;28.47;42.62;96120.88;5064195;28;20064;-65
2021/07/18 06:25:14;;;;;;;11.43;5.88;;;;;;;28.71;41.65;96152.59;5063498;28;20060;-66
2021/07/18 06:27:41;;;;;;;10.45;6.70;;;;;;;28.00;43.02;96082.53;5063313;28;20092;-65
2021/07/18 06:30:10;;;;;;;11.48;6.03;;;;;;;28.78;42.66;96143.56;5063366;28;20083;-67
2021/07/18 06:32:37;;;;;;;12.77;6.20;;;;;;;28.72;41.83;96114.28;5062866;28;20136;-67
2021/07/18 06:35:05;;;;;;;10.55;5.63;;;;;;;28.98;41.86;96184.09;5063124;28;20054;-65
2021/07/18 06:37:32;;;;;;;15.73;7.28;;;;;;;27.74;42.39;95957.34;5061661;28;20056;-66
2021/07/18 06:40:00;;;;;;;31.23;20.05;;;;;;;29.04;42.76;96147.03;5063058;28;20053;-66
2021/07/18 06:42:27;;;;;;;18.85;7.55;;;;;;;29.25;41.19;96134.94;5061854;28;20056;-66
2021/07/18 06:44:54;;;;;;;10.73;6.55;;;;;;;28.81;42.36;96145.41;5063323;28;20048;-68
2021/07/18 06:47:21;;;;;;;14.90;6.68;;;;;;;28.86;42.08;96136.09;5061598;28;20060;-65
2021/07/18 06:49:47;;;;;;;7.75;6.05;;;;;;;28.74;41.65;96083.19;5063002;28;20220;-66
2021/07/18 06:52:15;;;;;;;7.50;6.28;;;;;;;28.52;41.28;96083.09;5062921;28;20061;-66
2021/07/18 06:54:42;;;;;;;11.18;6.63;;;;;;;28.33;42.63;96102.66;5061407;28;20052;-65
2021/07/18 06:57:09;;;;;;;20.33;8.52;;;;;;;28.65;42.49;96074.84;5046581;28;20057;-68
2021/07/18 06:59:36;;;;;;;9.13;6.82;;;;;;;28.96;41.46;96092.56;5041294;28;20065;-68
2021/07/18 07:02:03;;;;;;;14.85;6.03;;;;;;;29.28;41.36;96122.47;5043272;28;20466;-66
2021/07/18 07:04:32;;;;;;;9.50;6.82;;;;;;;29.13;41.92;96126.88;5043316;28;20086;-66
2021/07/18 07:06:59;;;;;;;11.68;6.80;;;;;;;29.20;40.74;96112.88;5043535;28;20065;-65
2021/07/18 07:09:26;;;;;;;13.63;7.25;;;;;;;29.55;40.08;96123.81;5042823;28;20111;-67
2021/07/18 07:11:53;;;;;;;7.90;5.10;;;;;;;29.31;39.99;96080.72;5043255;28;20067;-66
2021/07/18 07:14:19;;;;;;;12.80;6.65;;;;;;;29.38;40.04;96068.78;5061662;28;20083;-67
2021/07/18 07:16:46;;;;;;;19.23;9.90;;;;;;;29.69;39.80;96122.78;5062690;28;20060;-67
2021/07/18 07:19:13;;;;;;;9.73;6.32;;;;;;;29.77;39.88;96128.75;5063504;28;20135;-67
2021/07/18 07:21:40;;;;;;;16.15;8.38;;;;;;;29.72;39.79;96118.13;5062874;28;20064;-67
2021/07/18 07:24:07;;;;;;;13.05;7.68;;;;;;;29.69;39.77;96105.66;5063298;28;20098;-67
2021/07/18 07:26:35;;;;;;;8.20;5.90;;;;;;;29.75;39.70;96115.00;5061630;28;20059;-67
2021/07/18 07:29:03;;;;;;;20.27;11.43;;;;;;;30.00;39.54;96119.69;5063099;28;20577;-66
2021/07/18 07:31:30;;;;;;;9.50;6.22;;;;;;;30.06;39.35;96122.50;5077726;28;20442;-67
2021/07/18 07:33:57;;;;;;;35.78;17.70;;;;;;;29.85;38.84;96059.19;5061768;28;20059;-66
2021/07/18 07:36:24;;;;;;;13.82;7.22;;;;;;;30.32;39.29;96114.44;5062795;28;20092;-66
2021/07/18 07:38:50;;;;;;;16.95;8.07;;;;;;;30.48;38.54;96114.38;5062597;28;20064;-67
2021/07/18 07:41:17;;;;;;;14.88;7.60;;;;;;;30.48;38.59;96108.66;5061290;28;20053;-66
2021/07/18 07:43:44;;;;;;;28.77;11.48;;;;;;;30.50;38.60;96108.91;5062125;28;20049;-66
2021/07/18 07:46:11;;;;;;;14.20;8.52;;;;;;;29.86;38.88;96029.31;5061198;28;20136;-66
2021/07/18 07:48:38;;;;;;;17.80;8.38;;;;;;;30.41;38.92;96057.78;5061546;28;20067;-66
2021/07/18 07:51:06;;;;;;;15.80;7.47;;;;;;;30.46;38.93;96059.81;5061364;28;20060;-66
2021/07/18 07:53:33;;;;;;;18.42;8.40;;;;;;;30.68;38.59;96105.47;5061141;28;20060;-66
2021/07/18 07:56:00;;;;;;;14.73;9.18;;;;;;;30.80;38.82;96098.44;5060822;28;20056;-66
2021/07/18 07:58:27;;;;;;;7.95;6.05;;;;;;;30.84;38.65;96101.78;5062127;28;20053;-66
2021/07/18 08:00:54;;;;;;;7.03;5.50;;;;;;;30.82;38.42;96072.94;5061571;28;20059;-66
2021/07/18 08:03:21;;;;;;;6.80;6.05;;;;;;;29.85;38.19;95933.53;5061023;28;20059;-66
2021/07/18 08:05:48;;;;;;;24.25;11.77;;;;;;;31.24;38.10;96105.19;5062426;28;20052;-66
2021/07/18 08:08:15;;;;;;;14.18;6.50;;;;;;;30.98;37.92;96068.44;5061333;28;20048;-67
2021/07/18 08:11:03;;;;;;;8.13;6.80;;;;;;;31.30;38.13;96103.09;5062707;28;20045;-67
2021/07/18 08:13:30;;;;;;;21.35;10.25;;;;;;;30.53;38.84;96076.41;5052515;28;20067;-66
2021/07/18 08:15:59;;;;;;;18.75;13.65;;;;;;;30.98;38.71;96093.41;5044763;28;20082;-66
2021/07/18 08:18:26;;;;;;;15.02;11.65;;;;;;;30.61;38.93;96100.31;5044766;28;20594;-67
2021/07/18 08:20:52;;;;;;;10.60;7.65;;;;;;;30.51;39.82;96101.88;5045980;28;20063;-67
2021/07/18 08:23:19;;;;;;;12.23;7.32;;;;;;;30.98;38.87;96102.75;5044914;28;20443;-64
2021/07/18 08:25:46;;;;;;;10.55;7.07;;;;;;;30.88;38.96;96090.84;5044790;28;20167;-68
2021/07/18 08:28:13;;;;;;;13.07;7.65;;;;;;;31.35;38.44;96102.28;5045549;28;20053;-66
2021/07/18 08:30:42;;;;;;;10.00;7.95;;;;;;;31.43;38.28;96088.94;5045716;28;20503;-66
2021/07/18 08:33:10;;;;;;;10.80;7.13;;;;;;;31.71;37.85;96081.69;5044296;28;20059;-68
2021/07/18 08:35:36;;;;;;;15.00;7.80;;;;;;;31.42;38.56;96087.41;5044468;28;20048;-66
2021/07/18 08:38:04;;;;;;;12.55;6.45;;;;;;;31.74;37.52;96094.19;5044353;28;20067;-65
2021/07/18 08:40:34;;;;;;;9.27;6.13;;;;;;;31.71;37.21;96053.03;5046201;28;20056;-66
2021/07/18 08:43:01;;;;;;;11.93;8.40;;;;;;;31.29;37.60;96044.25;5045581;28;20088;-65
2021/07/18 08:45:28;;;;;;;17.52;12.10;;;;;;;31.72;37.21;96068.16;5045499;28;20060;-67
2021/07/18 08:47:55;;;;;;;14.20;7.70;;;;;;;31.81;36.80;96051.41;5043946;28;20061;-67
2021/07/18 08:50:23;;;;;;;14.23;6.50;;;;;;;32.12;36.67;96070.16;5044161;28;20067;-71
2021/07/18 08:52:55;;;;;;;15.30;6.78;;;;;;;32.25;36.24;96071.03;5044316;28;20133;-67
2021/07/18 08:55:24;;;;;;;11.98;8.07;;;;;;;31.48;36.36;95931.44;5045150;28;20061;-67
2021/07/18 08:57:52;;;;;;;11.85;6.35;;;;;;;32.44;35.70;96068.22;5045408;28;20138;-67
2021/07/18 09:00:21;;;;;;;9.25;7.03;;;;;;;32.48;36.03;96062.97;5044016;28;20057;-67
2021/07/18 09:02:48;;;;;;;8.77;6.65;;;;;;;32.64;35.78;96064.88;5045312;28;20053;-66
2021/07/18 09:05:16;;;;;;;12.82;7.32;;;;;;;32.86;35.46;96064.56;5045236;28;20450;-67
2021/07/18 09:07:46;;;;;;;13.23;7.00;;;;;;;33.02;36.11;96052.09;5043709;28;20060;-67
2021/07/18 09:10:14;;;;;;;10.05;6.95;;;;;;;33.08;35.51;96049.94;5043307;28;20060;-65
2021/07/18 09:12:41;;;;;;;8.98;6.63;;;;;;;32.65;35.60;95973.84;5049896;28;20056;-65
2021/07/18 09:15:09;;;;;;;11.50;6.18;;;;;;;33.01;34.92;96007.50;5065080;28;20078;-67
2021/07/18 09:17:37;;;;;;;13.40;7.60;;;;;;;32.46;36.27;96036.94;5065137;28;20053;-67
2021/07/18 09:20:16;;;;;;;11.50;7.05;;;;;;;32.55;35.48;95970.56;5063687;28;20063;-68
2021/07/18 09:22:43;;;;;;;13.80;7.50;;;;;;;33.17;36.07;96043.78;5062925;28;20056;-66
2021/07/18 09:25:10;;;;;;;12.75;6.18;;;;;;;32.96;34.90;95988.25;5064458;28;20048;-66
2021/07/18 09:27:37;;;;;;;9.68;6.50;;;;;;;33.28;35.06;96003.44;5064262;28;20063;-67
2021/07/18 09:30:17;;;;;;;17.52;6.68;;;;;;;33.47;35.40;96032.91;5062601;28;20060;-67
2021/07/18 09:32:47;;;;;;;7.75;6.32;;;;;;;32.92;34.54;96016.50;5064402;28;20057;-66
2021/07/18 09:35:18;;;;;;;20.42;7.35;;;;;;;32.74;35.79;96039.44;5062751;28;20139;-66
2021/07/18 09:37:47;;;;;;;13.05;6.72;;;;;;;33.09;34.82;96019.91;5062978;28;20618;-66
2021/07/18 09:40:27;;;;;;;10.95;7.13;;;;;;;33.15;35.12;96023.47;5062898;28;20416;-67
2021/07/18 09:43:00;;;;;;;11.02;6.82;;;;;;;33.35;35.65;95999.94;5063909;28;20056;-66
2021/07/18 09:45:32;;;;;;;18.70;10.13;;;;;;;33.78;34.28;96019.06;5064646;28;20052;-67
2021/07/18 09:48:03;;;;;;;24.85;13.32;;;;;;;33.82;34.11;96022.38;5063409;28;20545;-68
2021/07/18 09:50:34;;;;;;;13.60;7.95;;;;;;;33.93;34.64;96039.44;5064266;28;20512;-67
2021/07/18 09:53:12;;;;;;;7.68;5.63;;;;;;;33.13;35.29;96020.38;5062059;28;20483;-68
2021/07/18 09:55:55;;;;;;;15.80;8.40;;;;;;;33.15;35.31;95977.53;5062762;28;20061;-66
2021/07/18 09:58:23;;;;;;;7.28;6.22;;;;;;;33.88;34.59;96025.94;5062218;28;20162;-67
2021/07/18 10:00:51;;;;;;;11.35;7.63;;;;;;;32.83;35.26;95835.34;5062863;28;20052;-68
2021/07/18 10:03:22;;;;;;;9.60;7.68;;;;;;;34.00;34.90;96021.56;5064213;28;20076;-69
2021/07/18 10:06:05;;;;;;;9.75;6.65;;;;;;;33.85;34.31;95995.41;5064123;28;20056;-68
2021/07/18 10:08:32;;;;;;;14.85;7.03;;;;;;;34.13;35.04;96024.44;5062874;28;20570;-70
2021/07/18 10:10:59;;;;;;;10.90;7.68;;;;;;;34.20;35.22;96029.53;5062479;28;20064;-68
2021/07/18 10:13:26;;;;;;;10.00;7.38;;;;;;;34.08;35.30;95988.75;5050252;28;20053;-67
2021/07/18 10:15:53;;;;;;;11.52;7.90;;;;;;;34.42;34.96;95994.59;5044281;28;20652;-68
2021/07/18 10:18:21;;;;;;;7.22;6.57;;;;;;;34.57;34.70;96040.84;5044439;28;20068;-67
2021/07/18 10:20:47;;;;;;;13.95;6.75;;;;;;;34.29;34.53;95974.47;5043827;28;20053;-68
2021/07/18 10:23:16;;;;;;;14.55;6.22;;;;;;;34.36;34.24;95973.78;5042823;28;20625;-68
2021/07/18 10:25:45;;;;;;;16.10;7.22;;;;;;;34.45;34.01;96005.00;5042227;28;20059;-69
2021/07/18 10:28:11;;;;;;;8.73;6.65;;;;;;;34.50;34.52;96018.50;5042048;28;20057;-68
2021/07/18 10:30:43;;;;;;;8.90;6.88;;;;;;;33.96;35.27;95940.59;5042351;28;20057;-66
2021/07/18 10:33:15;;;;;;;8.93;7.45;;;;;;;34.42;34.54;96034.88;5042889;28;20528;-68
2021/07/18 10:35:48;;;;;;;9.05;7.45;;;;;;;34.39;35.30;96024.47;5043875;28;20102;-66
2021/07/18 10:38:17;;;;;;;17.00;6.97;;;;;;;34.60;35.20;96031.09;5043957;28;20061;-66
2021/07/18 10:40:56;;;;;;;9.93;6.82;;;;;;;34.29;34.38;95992.47;5041758;28;20063;-64
2021/07/18 10:43:38;;;;;;;14.15;6.78;;;;;;;34.60;34.66;96022.47;5041866;28;20048;-67
2021/07/18 10:46:07;;;;;;;16.95;8.10;;;;;;;34.84;34.46;96007.81;5042622;28;20296;-67
2021/07/18 10:48:46;;;;;;;11.82;8.15;;;;;;;35.05;34.27;96026.72;5041791;28;20080;-66
2021/07/18 10:51:20;;;;;;;16.15;12.02;;;;;;;35.05;33.40;96011.53;5041571;28;20135;-67
2021/07/18 10:53:51;;;;;;;16.70;8.10;;;;;;;34.66;34.01;95991.47;5043645;28;20064;-66
2021/07/18 10:56:20;;;;;;;9.90;6.82;;;;;;;34.06;34.00;95962.63;5041995;28;20089;-68
2021/07/18 10:58:51;;;;;;;10.98;6.03;;;;;;;34.74;34.06;95987.38;5041496;28;20053;-67
2021/07/18 11:01:23;;;;;;;14.40;7.93;;;;;;;35.16;34.04;95996.13;5042858;28;20060;-68
2021/07/18 11:03:51;;;;;;;12.48;9.43;;;;;;;34.64;33.25;95959.59;5043169;28;20053;-66
2021/07/18 11:06:23;;;;;;;12.95;8.60;;;;;;;34.82;33.02;95993.19;5042986;28;20049;-67
2021/07/18 11:09:08;;;;;;;10.55;8.32;;;;;;;34.48;34.37;96001.00;5042884;28;20459;-66
2021/07/18 11:11:45;;;;;;;11.27;7.30;;;;;;;34.57;34.35;95994.81;5041927;28;20154;-68
2021/07/18 11:14:34;;;;;;;7.85;7.10;;;;;;;33.99;34.29;96002.78;5059845;28;20056;-67
2021/07/18 11:17:04;;;;;;;12.60;7.40;;;;;;;34.20;34.40;95946.91;5061605;28;20148;-64
2021/07/18 11:19:37;;;;;;;10.88;7.75;;;;;;;34.25;34.07;95982.63;5061619;28;20075;-65
2021/07/18 11:22:05;;;;;;;9.20;7.60;;;;;;;34.75;32.57;95971.63;5062589;28;20584;-65
2021/07/18 11:25:05;;;;;;;7.75;6.95;;;;;;;34.91;32.33;95984.13;5063204;28;20052;-65
2021/07/18 11:27:34;;;;;;;10.55;7.32;;;;;;;34.90;32.46;95980.47;5038708;28;20064;-65
2021/07/18 11:30:05;;;;;;;8.18;7.35;;;;;;;35.01;31.59;95948.53;5063139;28;20057;-65
2021/07/18 11:32:33;;;;;;;9.27;6.32;;;;;;;35.53;31.05;95972.69;5062849;28;20048;-68